Pagina principale
METAR-TAF:

METAR-TAF

Aeroporti :

Pian Rosa, Italia

latitudine: 45-56N, longitudine: 007-42E, altezza: 3480 m

Osservazione

Il bollettino è stato emesso 34 minuti fa, alle 14:55 UTC
Vento 5 kt da sud
Temperature 7°C
Umidità 70%
Pressione 1032 hPa
Visibilità 10 km o più
Poco nuvoloso ad un'altezza inferiore a 100 ft
Nubi sparse ad un'altezza di 3000 ft

METAR: LIMH 181455Z 19005KT 9999 FEW000 SCT030 07/02 Q1032 RMK FEW MON CLD SCT VAL S CLD SCT VIS MIN 9999

Ora: 17:29 (15:29 UTC)


TAF: mancante

Osservazioni e previsioni meteorologiche di più di 4000 aeroporti (messaggi METAR e TAF).

Le stazioni disponibili sono rappresentate dai dischi gialli e rossi sulla carta.

Puntare il mouse per vedere il nome della stazione.

Clicca sopra per visualizzare le osservazioni e previsioni meteorologiche.

Per cambiare la mappa : fare clic sui pulsanti verdi con una croce nera per ingrandire, il pulsante verde con un trattino per diminuire, o sulla freccia verde per le mappe adiacenti.


METAR-TAF: